sensor_id;sensor_type;location;lat;lon;timestamp;P1;durP1;ratioP1;P2;durP2;ratioP2
10633;SDS011;5365;51.640;8.106;2023-04-25T00:02:47;196.70;;;54.07;;
10633;SDS011;5365;51.640;8.106;2023-04-25T00:05:47;195.07;;;53.70;;
10633;SDS011;5365;51.640;8.106;2023-04-25T00:08:48;201.23;;;58.60;;
10633;SDS011;5365;51.640;8.106;2023-04-25T00:11:48;200.77;;;56.83;;
10633;SDS011;5365;51.640;8.106;2023-04-25T00:14:48;200.13;;;57.13;;
10633;SDS011;5365;51.640;8.106;2023-04-25T00:17:49;192.83;;;54.97;;
10633;SDS011;5365;51.640;8.106;2023-04-25T00:20:52;197.77;;;56.30;;
10633;SDS011;5365;51.640;8.106;2023-04-25T00:23:52;193.77;;;54.70;;
10633;SDS011;5365;51.640;8.106;2023-04-25T00:26:53;189.40;;;52.30;;
10633;SDS011;5365;51.640;8.106;2023-04-25T00:29:53;193.60;;;55.37;;
10633;SDS011;5365;51.640;8.106;2023-04-25T00:32:53;199.87;;;58.90;;
10633;SDS011;5365;51.640;8.106;2023-04-25T00:35:54;203.80;;;58.67;;
10633;SDS011;5365;51.640;8.106;2023-04-25T00:38:55;198.70;;;55.70;;
10633;SDS011;5365;51.640;8.106;2023-04-25T00:41:55;194.40;;;56.60;;
10633;SDS011;5365;51.640;8.106;2023-04-25T00:44:56;196.53;;;56.87;;
10633;SDS011;5365;51.640;8.106;2023-04-25T00:47:57;194.67;;;55.53;;
10633;SDS011;5365;51.640;8.106;2023-04-25T00:50:57;200.57;;;58.73;;
10633;SDS011;5365;51.640;8.106;2023-04-25T00:53:58;198.23;;;57.20;;
10633;SDS011;5365;51.640;8.106;2023-04-25T00:56:58;198.37;;;57.07;;
10633;SDS011;5365;51.640;8.106;2023-04-25T00:59:58;195.13;;;56.80;;
10633;SDS011;5365;51.640;8.106;2023-04-25T01:02:59;197.77;;;58.23;;
10633;SDS011;5365;51.640;8.106;2023-04-25T01:06:00;196.67;;;55.63;;
10633;SDS011;5365;51.640;8.106;2023-04-25T01:09:00;195.23;;;56.23;;
10633;SDS011;5365;51.640;8.106;2023-04-25T01:12:01;197.00;;;56.63;;
10633;SDS011;5365;51.640;8.106;2023-04-25T01:15:02;197.20;;;56.60;;
10633;SDS011;5365;51.640;8.106;2023-04-25T01:18:06;198.13;;;56.50;;
10633;SDS011;5365;51.640;8.106;2023-04-25T01:21:10;195.63;;;58.17;;
10633;SDS011;5365;51.640;8.106;2023-04-25T01:24:10;195.17;;;55.13;;
10633;SDS011;5365;51.640;8.106;2023-04-25T01:27:10;197.03;;;57.73;;
10633;SDS011;5365;51.640;8.106;2023-04-25T01:30:11;199.93;;;59.37;;
10633;SDS011;5365;51.640;8.106;2023-04-25T01:33:11;199.00;;;58.93;;
10633;SDS011;5365;51.640;8.106;2023-04-25T01:36:12;204.77;;;56.57;;
10633;SDS011;5365;51.640;8.106;2023-04-25T01:39:12;200.67;;;58.97;;
10633;SDS011;5365;51.640;8.106;2023-04-25T01:42:13;197.57;;;57.70;;
10633;SDS011;5365;51.640;8.106;2023-04-25T01:45:13;205.10;;;60.57;;
10633;SDS011;5365;51.640;8.106;2023-04-25T01:48:13;206.43;;;60.33;;
10633;SDS011;5365;51.640;8.106;2023-04-25T01:51:14;197.17;;;59.13;;
10633;SDS011;5365;51.640;8.106;2023-04-25T01:54:15;202.50;;;58.67;;
10633;SDS011;5365;51.640;8.106;2023-04-25T01:57:15;205.10;;;61.73;;
10633;SDS011;5365;51.640;8.106;2023-04-25T02:00:15;205.90;;;62.33;;
10633;SDS011;5365;51.640;8.106;2023-04-25T02:03:16;207.50;;;66.87;;
10633;SDS011;5365;51.640;8.106;2023-04-25T02:06:16;200.30;;;60.20;;
10633;SDS011;5365;51.640;8.106;2023-04-25T02:09:16;195.73;;;57.33;;
10633;SDS011;5365;51.640;8.106;2023-04-25T02:12:16;201.70;;;59.73;;
10633;SDS011;5365;51.640;8.106;2023-04-25T02:15:17;208.20;;;62.60;;
10633;SDS011;5365;51.640;8.106;2023-04-25T02:18:17;203.13;;;59.90;;
10633;SDS011;5365;51.640;8.106;2023-04-25T02:21:17;203.70;;;59.93;;
10633;SDS011;5365;51.640;8.106;2023-04-25T02:24:17;197.33;;;57.30;;
10633;SDS011;5365;51.640;8.106;2023-04-25T02:27:17;197.47;;;59.27;;
10633;SDS011;5365;51.640;8.106;2023-04-25T02:30:18;199.67;;;56.83;;
10633;SDS011;5365;51.640;8.106;2023-04-25T02:33:18;199.70;;;57.50;;
10633;SDS011;5365;51.640;8.106;2023-04-25T02:36:18;198.47;;;56.23;;
10633;SDS011;5365;51.640;8.106;2023-04-25T02:39:18;199.97;;;55.97;;
10633;SDS011;5365;51.640;8.106;2023-04-25T02:42:19;198.10;;;56.93;;
10633;SDS011;5365;51.640;8.106;2023-04-25T02:45:19;206.67;;;59.33;;
10633;SDS011;5365;51.640;8.106;2023-04-25T02:48:19;196.07;;;57.90;;
10633;SDS011;5365;51.640;8.106;2023-04-25T02:51:20;198.60;;;57.37;;
10633;SDS011;5365;51.640;8.106;2023-04-25T02:54:20;200.67;;;57.87;;
10633;SDS011;5365;51.640;8.106;2023-04-25T02:57:20;195.87;;;57.17;;
10633;SDS011;5365;51.640;8.106;2023-04-25T03:00:21;196.90;;;57.87;;
10633;SDS011;5365;51.640;8.106;2023-04-25T03:03:22;198.53;;;58.10;;
10633;SDS011;5365;51.640;8.106;2023-04-25T03:06:22;198.27;;;55.53;;
10633;SDS011;5365;51.640;8.106;2023-04-25T03:09:22;200.77;;;58.07;;
10633;SDS011;5365;51.640;8.106;2023-04-25T03:12:22;200.70;;;56.90;;
10633;SDS011;5365;51.640;8.106;2023-04-25T03:15:23;196.13;;;55.90;;
10633;SDS011;5365;51.640;8.106;2023-04-25T03:18:23;211.90;;;62.83;;
10633;SDS011;5365;51.640;8.106;2023-04-25T03:21:23;194.60;;;55.55;;
10633;SDS011;5365;51.640;8.106;2023-04-25T03:24:23;192.00;;;53.53;;
10633;SDS011;5365;51.640;8.106;2023-04-25T03:27:24;197.10;;;57.97;;
10633;SDS011;5365;51.640;8.106;2023-04-25T03:30:24;200.10;;;56.60;;
10633;SDS011;5365;51.640;8.106;2023-04-25T03:33:24;198.03;;;57.87;;
10633;SDS011;5365;51.640;8.106;2023-04-25T03:36:24;197.27;;;55.00;;
10633;SDS011;5365;51.640;8.106;2023-04-25T03:39:25;195.32;;;57.00;;
10633;SDS011;5365;51.640;8.106;2023-04-25T03:42:25;196.57;;;55.37;;
10633;SDS011;5365;51.640;8.106;2023-04-25T03:45:25;196.07;;;56.73;;
10633;SDS011;5365;51.640;8.106;2023-04-25T03:48:26;192.27;;;56.17;;
10633;SDS011;5365;51.640;8.106;2023-04-25T03:51:26;194.13;;;55.63;;
10633;SDS011;5365;51.640;8.106;2023-04-25T03:54:26;197.33;;;55.17;;
10633;SDS011;5365;51.640;8.106;2023-04-25T03:57:26;199.00;;;59.00;;
10633;SDS011;5365;51.640;8.106;2023-04-25T04:00:26;193.37;;;56.07;;
10633;SDS011;5365;51.640;8.106;2023-04-25T04:03:27;197.03;;;56.90;;
10633;SDS011;5365;51.640;8.106;2023-04-25T04:06:27;193.35;;;55.60;;
10633;SDS011;5365;51.640;8.106;2023-04-25T04:09:27;198.07;;;55.97;;
10633;SDS011;5365;51.640;8.106;2023-04-25T04:12:27;188.77;;;52.57;;
10633;SDS011;5365;51.640;8.106;2023-04-25T04:15:27;195.03;;;54.20;;
10633;SDS011;5365;51.640;8.106;2023-04-25T04:18:28;188.87;;;53.23;;
10633;SDS011;5365;51.640;8.106;2023-04-25T04:21:28;189.30;;;53.27;;
10633;SDS011;5365;51.640;8.106;2023-04-25T04:24:28;191.67;;;53.73;;
10633;SDS011;5365;51.640;8.106;2023-04-25T04:27:28;196.23;;;52.87;;
10633;SDS011;5365;51.640;8.106;2023-04-25T04:30:29;192.97;;;54.60;;
10633;SDS011;5365;51.640;8.106;2023-04-25T04:33:30;192.03;;;54.03;;
10633;SDS011;5365;51.640;8.106;2023-04-25T04:36:31;195.10;;;54.33;;
10633;SDS011;5365;51.640;8.106;2023-04-25T04:39:32;193.80;;;53.50;;
10633;SDS011;5365;51.640;8.106;2023-04-25T04:42:32;192.17;;;55.30;;
10633;SDS011;5365;51.640;8.106;2023-04-25T04:45:32;194.03;;;53.77;;
10633;SDS011;5365;51.640;8.106;2023-04-25T04:48:33;197.77;;;53.57;;
10633;SDS011;5365;51.640;8.106;2023-04-25T04:51:34;189.53;;;53.73;;
10633;SDS011;5365;51.640;8.106;2023-04-25T04:54:34;193.77;;;55.33;;
10633;SDS011;5365;51.640;8.106;2023-04-25T04:57:35;204.20;;;59.13;;
10633;SDS011;5365;51.640;8.106;2023-04-25T05:00:35;197.47;;;55.87;;
10633;SDS011;5365;51.640;8.106;2023-04-25T05:03:36;187.73;;;52.23;;
10633;SDS011;5365;51.640;8.106;2023-04-25T05:06:36;189.67;;;52.53;;
10633;SDS011;5365;51.640;8.106;2023-04-25T05:09:36;202.43;;;53.57;;
10633;SDS011;5365;51.640;8.106;2023-04-25T05:12:36;200.20;;;57.70;;
10633;SDS011;5365;51.640;8.106;2023-04-25T05:15:36;198.10;;;55.07;;
10633;SDS011;5365;51.640;8.106;2023-04-25T05:18:37;202.23;;;56.67;;
10633;SDS011;5365;51.640;8.106;2023-04-25T05:21:37;190.20;;;52.43;;
10633;SDS011;5365;51.640;8.106;2023-04-25T05:24:37;191.97;;;53.53;;
10633;SDS011;5365;51.640;8.106;2023-04-25T05:27:37;196.73;;;56.57;;
10633;SDS011;5365;51.640;8.106;2023-04-25T05:30:38;197.77;;;56.97;;
10633;SDS011;5365;51.640;8.106;2023-04-25T05:33:38;199.97;;;57.00;;
10633;SDS011;5365;51.640;8.106;2023-04-25T05:36:38;192.53;;;54.10;;
10633;SDS011;5365;51.640;8.106;2023-04-25T05:39:38;188.87;;;54.23;;
10633;SDS011;5365;51.640;8.106;2023-04-25T05:42:38;190.47;;;54.67;;
10633;SDS011;5365;51.640;8.106;2023-04-25T05:45:39;197.17;;;55.97;;
10633;SDS011;5365;51.640;8.106;2023-04-25T05:48:39;199.63;;;55.97;;
10633;SDS011;5365;51.640;8.106;2023-04-25T05:51:39;191.83;;;53.97;;
10633;SDS011;5365;51.640;8.106;2023-04-25T05:54:39;196.40;;;55.40;;
10633;SDS011;5365;51.640;8.106;2023-04-25T05:57:40;195.33;;;55.63;;
10633;SDS011;5365;51.640;8.106;2023-04-25T06:00:41;191.80;;;56.00;;
10633;SDS011;5365;51.640;8.106;2023-04-25T06:03:41;196.20;;;56.97;;
10633;SDS011;5365;51.640;8.106;2023-04-25T06:06:42;197.90;;;56.80;;
10633;SDS011;5365;51.640;8.106;2023-04-25T06:09:43;192.17;;;54.23;;
10633;SDS011;5365;51.640;8.106;2023-04-25T06:12:43;193.33;;;56.53;;
10633;SDS011;5365;51.640;8.106;2023-04-25T06:15:43;190.10;;;54.50;;
10633;SDS011;5365;51.640;8.106;2023-04-25T06:18:44;186.43;;;52.33;;
10633;SDS011;5365;51.640;8.106;2023-04-25T06:21:44;193.97;;;55.57;;
10633;SDS011;5365;51.640;8.106;2023-04-25T06:24:44;190.67;;;52.87;;
10633;SDS011;5365;51.640;8.106;2023-04-25T06:27:45;193.47;;;55.27;;
10633;SDS011;5365;51.640;8.106;2023-04-25T06:30:46;195.87;;;53.90;;
10633;SDS011;5365;51.640;8.106;2023-04-25T06:33:46;186.20;;;53.53;;
10633;SDS011;5365;51.640;8.106;2023-04-25T06:36:48;192.23;;;53.50;;
10633;SDS011;5365;51.640;8.106;2023-04-25T06:39:48;191.13;;;54.00;;
10633;SDS011;5365;51.640;8.106;2023-04-25T06:42:48;198.23;;;58.57;;
10633;SDS011;5365;51.640;8.106;2023-04-25T06:45:48;194.60;;;57.53;;
10633;SDS011;5365;51.640;8.106;2023-04-25T06:48:48;191.80;;;55.03;;
10633;SDS011;5365;51.640;8.106;2023-04-25T06:51:49;188.20;;;55.57;;
10633;SDS011;5365;51.640;8.106;2023-04-25T06:54:49;189.77;;;54.43;;
10633;SDS011;5365;51.640;8.106;2023-04-25T06:57:49;183.37;;;52.50;;
10633;SDS011;5365;51.640;8.106;2023-04-25T07:00:49;190.17;;;55.47;;
10633;SDS011;5365;51.640;8.106;2023-04-25T07:03:50;189.87;;;56.00;;
10633;SDS011;5365;51.640;8.106;2023-04-25T07:06:50;192.83;;;54.27;;
10633;SDS011;5365;51.640;8.106;2023-04-25T07:09:50;191.77;;;53.00;;
10633;SDS011;5365;51.640;8.106;2023-04-25T07:12:50;188.97;;;53.70;;
10633;SDS011;5365;51.640;8.106;2023-04-25T07:15:51;187.80;;;55.03;;
10633;SDS011;5365;51.640;8.106;2023-04-25T07:18:51;186.37;;;53.17;;
10633;SDS011;5365;51.640;8.106;2023-04-25T07:21:51;184.57;;;52.57;;
10633;SDS011;5365;51.640;8.106;2023-04-25T07:24:52;177.67;;;49.17;;
10633;SDS011;5365;51.640;8.106;2023-04-25T07:27:53;174.20;;;47.80;;
10633;SDS011;5365;51.640;8.106;2023-04-25T07:30:53;178.90;;;49.87;;
10633;SDS011;5365;51.640;8.106;2023-04-25T07:33:53;173.23;;;48.03;;
10633;SDS011;5365;51.640;8.106;2023-04-25T07:36:53;170.87;;;48.03;;
10633;SDS011;5365;51.640;8.106;2023-04-25T07:39:53;181.40;;;51.40;;
10633;SDS011;5365;51.640;8.106;2023-04-25T07:42:54;174.43;;;48.00;;
10633;SDS011;5365;51.640;8.106;2023-04-25T07:45:54;185.63;;;53.77;;
10633;SDS011;5365;51.640;8.106;2023-04-25T07:48:54;172.47;;;48.33;;
10633;SDS011;5365;51.640;8.106;2023-04-25T07:51:54;174.23;;;46.87;;
10633;SDS011;5365;51.640;8.106;2023-04-25T07:54:55;167.85;;;45.28;;
10633;SDS011;5365;51.640;8.106;2023-04-25T07:57:55;174.40;;;48.97;;
10633;SDS011;5365;51.640;8.106;2023-04-25T08:00:55;184.10;;;53.53;;
10633;SDS011;5365;51.640;8.106;2023-04-25T08:03:55;177.93;;;50.33;;
10633;SDS011;5365;51.640;8.106;2023-04-25T08:06:55;181.80;;;53.03;;
10633;SDS011;5365;51.640;8.106;2023-04-25T08:09:56;178.77;;;52.03;;
10633;SDS011;5365;51.640;8.106;2023-04-25T08:12:56;188.07;;;53.17;;
10633;SDS011;5365;51.640;8.106;2023-04-25T08:15:56;186.20;;;52.67;;
10633;SDS011;5365;51.640;8.106;2023-04-25T08:18:56;177.67;;;49.50;;
10633;SDS011;5365;51.640;8.106;2023-04-25T08:21:56;184.13;;;52.90;;
10633;SDS011;5365;51.640;8.106;2023-04-25T08:24:57;185.13;;;51.73;;
10633;SDS011;5365;51.640;8.106;2023-04-25T08:27:57;179.53;;;52.77;;
10633;SDS011;5365;51.640;8.106;2023-04-25T08:30:59;186.90;;;53.17;;
10633;SDS011;5365;51.640;8.106;2023-04-25T08:33:59;181.37;;;53.37;;
10633;SDS011;5365;51.640;8.106;2023-04-25T08:37:00;180.37;;;51.30;;
10633;SDS011;5365;51.640;8.106;2023-04-25T08:40:00;181.77;;;53.20;;
10633;SDS011;5365;51.640;8.106;2023-04-25T08:43:00;183.87;;;53.63;;
10633;SDS011;5365;51.640;8.106;2023-04-25T08:46:03;182.20;;;53.50;;
10633;SDS011;5365;51.640;8.106;2023-04-25T08:49:03;183.77;;;54.80;;
10633;SDS011;5365;51.640;8.106;2023-04-25T08:52:04;183.47;;;52.93;;
10633;SDS011;5365;51.640;8.106;2023-04-25T08:55:07;182.20;;;53.70;;
10633;SDS011;5365;51.640;8.106;2023-04-25T08:58:09;182.03;;;54.70;;
10633;SDS011;5365;51.640;8.106;2023-04-25T09:01:10;180.77;;;51.60;;
10633;SDS011;5365;51.640;8.106;2023-04-25T09:04:11;181.03;;;54.47;;
10633;SDS011;5365;51.640;8.106;2023-04-25T09:07:12;180.27;;;53.33;;
10633;SDS011;5365;51.640;8.106;2023-04-25T09:10:12;184.87;;;53.77;;
10633;SDS011;5365;51.640;8.106;2023-04-25T09:13:13;182.50;;;52.73;;
10633;SDS011;5365;51.640;8.106;2023-04-25T09:16:14;190.03;;;53.23;;
10633;SDS011;5365;51.640;8.106;2023-04-25T09:19:20;185.83;;;56.27;;
10633;SDS011;5365;51.640;8.106;2023-04-25T09:22:21;189.53;;;53.97;;
10633;SDS011;5365;51.640;8.106;2023-04-25T09:25:22;179.17;;;51.27;;
10633;SDS011;5365;51.640;8.106;2023-04-25T09:28:25;188.87;;;54.93;;
10633;SDS011;5365;51.640;8.106;2023-04-25T09:31:28;184.67;;;53.60;;
10633;SDS011;5365;51.640;8.106;2023-04-25T09:34:28;185.93;;;55.53;;
10633;SDS011;5365;51.640;8.106;2023-04-25T09:37:30;187.37;;;55.00;;
10633;SDS011;5365;51.640;8.106;2023-04-25T09:40:30;182.87;;;55.13;;
10633;SDS011;5365;51.640;8.106;2023-04-25T09:43:30;184.00;;;55.47;;
10633;SDS011;5365;51.640;8.106;2023-04-25T09:46:34;184.60;;;53.77;;
10633;SDS011;5365;51.640;8.106;2023-04-25T09:49:41;184.70;;;54.90;;
10633;SDS011;5365;51.640;8.106;2023-04-25T09:52:44;182.47;;;54.47;;
10633;SDS011;5365;51.640;8.106;2023-04-25T09:55:45;180.67;;;52.03;;
10633;SDS011;5365;51.640;8.106;2023-04-25T09:58:45;184.07;;;54.43;;
10633;SDS011;5365;51.640;8.106;2023-04-25T10:01:47;182.53;;;53.57;;
10633;SDS011;5365;51.640;8.106;2023-04-25T10:04:49;181.00;;;53.70;;
10633;SDS011;5365;51.640;8.106;2023-04-25T10:07:50;183.07;;;56.03;;
10633;SDS011;5365;51.640;8.106;2023-04-25T10:10:50;184.80;;;55.23;;
10633;SDS011;5365;51.640;8.106;2023-04-25T10:13:51;184.43;;;54.90;;
10633;SDS011;5365;51.640;8.106;2023-04-25T10:16:51;182.57;;;53.90;;
10633;SDS011;5365;51.640;8.106;2023-04-25T10:19:54;183.37;;;55.17;;
10633;SDS011;5365;51.640;8.106;2023-04-25T10:22:55;187.27;;;54.80;;
10633;SDS011;5365;51.640;8.106;2023-04-25T10:25:58;191.00;;;55.70;;
10633;SDS011;5365;51.640;8.106;2023-04-25T10:28:59;189.77;;;55.67;;
10633;SDS011;5365;51.640;8.106;2023-04-25T10:32:00;188.40;;;58.50;;
10633;SDS011;5365;51.640;8.106;2023-04-25T10:35:14;181.97;;;56.43;;
10633;SDS011;5365;51.640;8.106;2023-04-25T10:38:15;182.20;;;55.10;;
10633;SDS011;5365;51.640;8.106;2023-04-25T10:41:17;187.60;;;62.43;;
10633;SDS011;5365;51.640;8.106;2023-04-25T10:44:18;185.63;;;58.80;;
10633;SDS011;5365;51.640;8.106;2023-04-25T10:47:18;183.63;;;57.17;;
10633;SDS011;5365;51.640;8.106;2023-04-25T10:50:38;182.63;;;56.53;;
10633;SDS011;5365;51.640;8.106;2023-04-25T10:53:39;180.40;;;55.87;;
10633;SDS011;5365;51.640;8.106;2023-04-25T10:56:40;178.67;;;54.27;;
10633;SDS011;5365;51.640;8.106;2023-04-25T10:59:41;180.63;;;56.00;;
10633;SDS011;5365;51.640;8.106;2023-04-25T11:05:42;180.17;;;56.20;;
10633;SDS011;5365;51.640;8.106;2023-04-25T11:08:47;183.50;;;56.50;;
10633;SDS011;5365;51.640;8.106;2023-04-25T11:11:54;183.30;;;57.07;;
10633;SDS011;5365;51.640;8.106;2023-04-25T11:15:13;180.37;;;56.33;;
10633;SDS011;5365;51.640;8.106;2023-04-25T11:18:17;183.63;;;55.73;;
10633;SDS011;5365;51.640;8.106;2023-04-25T11:21:18;184.93;;;57.23;;
10633;SDS011;5365;51.640;8.106;2023-04-25T11:24:18;182.87;;;58.17;;
10633;SDS011;5365;51.640;8.106;2023-04-25T11:27:19;183.87;;;57.73;;
10633;SDS011;5365;51.640;8.106;2023-04-25T11:30:21;179.47;;;56.33;;
10633;SDS011;5365;51.640;8.106;2023-04-25T11:33:25;183.73;;;61.20;;
10633;SDS011;5365;51.640;8.106;2023-04-25T11:36:26;185.67;;;58.80;;
10633;SDS011;5365;51.640;8.106;2023-04-25T11:39:27;183.50;;;60.93;;
10633;SDS011;5365;51.640;8.106;2023-04-25T11:42:27;195.77;;;64.20;;
10633;SDS011;5365;51.640;8.106;2023-04-25T11:45:27;201.27;;;74.40;;
10633;SDS011;5365;51.640;8.106;2023-04-25T11:48:28;205.20;;;83.00;;
10633;SDS011;5365;51.640;8.106;2023-04-25T11:51:39;203.17;;;79.60;;
10633;SDS011;5365;51.640;8.106;2023-04-25T11:54:40;201.87;;;81.20;;
10633;SDS011;5365;51.640;8.106;2023-04-25T11:57:41;196.27;;;73.10;;
10633;SDS011;5365;51.640;8.106;2023-04-25T12:00:42;199.50;;;78.10;;
10633;SDS011;5365;51.640;8.106;2023-04-25T12:03:45;196.20;;;71.30;;
10633;SDS011;5365;51.640;8.106;2023-04-25T12:06:46;194.70;;;73.90;;
10633;SDS011;5365;51.640;8.106;2023-04-25T12:09:51;201.00;;;77.07;;
10633;SDS011;5365;51.640;8.106;2023-04-25T12:12:51;198.17;;;78.73;;
10633;SDS011;5365;51.640;8.106;2023-04-25T12:15:53;195.20;;;74.23;;
10633;SDS011;5365;51.640;8.106;2023-04-25T12:18:55;197.53;;;81.07;;
10633;SDS011;5365;51.640;8.106;2023-04-25T12:21:56;198.10;;;78.30;;
10633;SDS011;5365;51.640;8.106;2023-04-25T12:24:56;198.37;;;77.03;;
10633;SDS011;5365;51.640;8.106;2023-04-25T12:28:14;204.53;;;80.40;;
10633;SDS011;5365;51.640;8.106;2023-04-25T12:31:14;212.23;;;80.97;;
10633;SDS011;5365;51.640;8.106;2023-04-25T12:34:16;216.47;;;85.33;;
10633;SDS011;5365;51.640;8.106;2023-04-25T12:37:16;212.37;;;82.27;;
10633;SDS011;5365;51.640;8.106;2023-04-25T12:40:16;199.40;;;79.10;;
10633;SDS011;5365;51.640;8.106;2023-04-25T12:43:16;195.63;;;72.57;;
10633;SDS011;5365;51.640;8.106;2023-04-25T12:46:17;202.07;;;77.63;;
10633;SDS011;5365;51.640;8.106;2023-04-25T12:49:18;205.07;;;81.23;;
10633;SDS011;5365;51.640;8.106;2023-04-25T12:52:18;206.33;;;74.33;;
10633;SDS011;5365;51.640;8.106;2023-04-25T12:55:18;209.57;;;75.57;;
10633;SDS011;5365;51.640;8.106;2023-04-25T12:58:18;213.63;;;82.43;;
10633;SDS011;5365;51.640;8.106;2023-04-25T13:01:19;214.23;;;72.17;;
10633;SDS011;5365;51.640;8.106;2023-04-25T13:04:19;215.47;;;71.87;;
10633;SDS011;5365;51.640;8.106;2023-04-25T13:07:20;211.63;;;75.03;;
10633;SDS011;5365;51.640;8.106;2023-04-25T13:10:21;216.67;;;76.27;;
10633;SDS011;5365;51.640;8.106;2023-04-25T13:13:21;216.77;;;74.03;;
10633;SDS011;5365;51.640;8.106;2023-04-25T13:16:21;204.23;;;64.37;;
10633;SDS011;5365;51.640;8.106;2023-04-25T13:19:22;199.07;;;56.30;;
10633;SDS011;5365;51.640;8.106;2023-04-25T13:22:22;200.50;;;59.00;;
10633;SDS011;5365;51.640;8.106;2023-04-25T13:25:22;196.48;;;56.25;;
10633;SDS011;5365;51.640;8.106;2023-04-25T13:28:23;197.60;;;58.70;;
10633;SDS011;5365;51.640;8.106;2023-04-25T13:31:23;199.87;;;59.83;;
10633;SDS011;5365;51.640;8.106;2023-04-25T13:34:23;201.80;;;62.47;;
10633;SDS011;5365;51.640;8.106;2023-04-25T13:37:23;201.83;;;63.00;;
10633;SDS011;5365;51.640;8.106;2023-04-25T13:40:24;207.47;;;68.97;;
10633;SDS011;5365;51.640;8.106;2023-04-25T13:43:24;205.10;;;67.60;;
10633;SDS011;5365;51.640;8.106;2023-04-25T13:46:24;206.00;;;70.00;;
10633;SDS011;5365;51.640;8.106;2023-04-25T13:49:25;201.27;;;66.97;;
10633;SDS011;5365;51.640;8.106;2023-04-25T13:52:25;182.63;;;51.97;;
10633;SDS011;5365;51.640;8.106;2023-04-25T13:55:26;186.60;;;54.23;;
10633;SDS011;5365;51.640;8.106;2023-04-25T13:58:26;192.97;;;58.37;;
10633;SDS011;5365;51.640;8.106;2023-04-25T14:01:26;189.57;;;58.10;;
10633;SDS011;5365;51.640;8.106;2023-04-25T14:04:27;184.27;;;55.67;;
10633;SDS011;5365;51.640;8.106;2023-04-25T14:07:28;192.07;;;63.23;;
10633;SDS011;5365;51.640;8.106;2023-04-25T14:10:28;192.70;;;61.13;;
10633;SDS011;5365;51.640;8.106;2023-04-25T14:13:28;190.17;;;62.07;;
10633;SDS011;5365;51.640;8.106;2023-04-25T14:16:29;191.00;;;60.80;;
10633;SDS011;5365;51.640;8.106;2023-04-25T14:19:29;186.70;;;61.03;;
10633;SDS011;5365;51.640;8.106;2023-04-25T14:22:29;189.67;;;67.17;;
10633;SDS011;5365;51.640;8.106;2023-04-25T14:25:30;192.27;;;69.67;;
10633;SDS011;5365;51.640;8.106;2023-04-25T14:28:30;192.23;;;64.73;;
10633;SDS011;5365;51.640;8.106;2023-04-25T14:31:31;193.77;;;68.67;;
10633;SDS011;5365;51.640;8.106;2023-04-25T14:34:32;193.47;;;70.50;;
10633;SDS011;5365;51.640;8.106;2023-04-25T14:37:32;193.27;;;71.57;;
10633;SDS011;5365;51.640;8.106;2023-04-25T14:40:32;196.23;;;72.93;;
10633;SDS011;5365;51.640;8.106;2023-04-25T14:43:32;194.60;;;71.03;;
10633;SDS011;5365;51.640;8.106;2023-04-25T14:46:33;191.07;;;63.23;;
10633;SDS011;5365;51.640;8.106;2023-04-25T14:49:33;194.63;;;65.13;;
10633;SDS011;5365;51.640;8.106;2023-04-25T14:52:33;196.00;;;64.27;;
10633;SDS011;5365;51.640;8.106;2023-04-25T14:55:33;189.97;;;60.67;;
10633;SDS011;5365;51.640;8.106;2023-04-25T14:58:34;189.67;;;59.50;;
10633;SDS011;5365;51.640;8.106;2023-04-25T15:01:34;190.93;;;57.30;;
10633;SDS011;5365;51.640;8.106;2023-04-25T15:04:34;195.20;;;65.27;;
10633;SDS011;5365;51.640;8.106;2023-04-25T15:07:34;199.43;;;64.33;;
10633;SDS011;5365;51.640;8.106;2023-04-25T15:10:35;200.80;;;61.93;;
10633;SDS011;5365;51.640;8.106;2023-04-25T15:13:35;201.50;;;63.70;;
10633;SDS011;5365;51.640;8.106;2023-04-25T15:16:35;197.13;;;60.00;;
10633;SDS011;5365;51.640;8.106;2023-04-25T15:19:35;200.40;;;59.60;;
10633;SDS011;5365;51.640;8.106;2023-04-25T15:22:36;199.23;;;56.77;;
10633;SDS011;5365;51.640;8.106;2023-04-25T15:25:37;200.67;;;56.77;;
10633;SDS011;5365;51.640;8.106;2023-04-25T15:28:37;201.13;;;59.67;;
10633;SDS011;5365;51.640;8.106;2023-04-25T15:31:38;200.63;;;58.43;;
10633;SDS011;5365;51.640;8.106;2023-04-25T15:34:38;202.63;;;58.70;;
10633;SDS011;5365;51.640;8.106;2023-04-25T15:37:38;203.53;;;58.63;;
10633;SDS011;5365;51.640;8.106;2023-04-25T15:40:38;208.73;;;60.83;;
10633;SDS011;5365;51.640;8.106;2023-04-25T15:43:39;206.27;;;60.57;;
10633;SDS011;5365;51.640;8.106;2023-04-25T15:46:40;205.80;;;61.33;;
10633;SDS011;5365;51.640;8.106;2023-04-25T15:49:40;203.03;;;60.67;;
10633;SDS011;5365;51.640;8.106;2023-04-25T15:52:40;205.77;;;62.87;;
10633;SDS011;5365;51.640;8.106;2023-04-25T15:55:41;204.67;;;59.60;;
10633;SDS011;5365;51.640;8.106;2023-04-25T15:58:41;204.23;;;61.07;;
10633;SDS011;5365;51.640;8.106;2023-04-25T16:01:41;207.80;;;63.13;;
10633;SDS011;5365;51.640;8.106;2023-04-25T16:04:41;205.77;;;64.43;;
10633;SDS011;5365;51.640;8.106;2023-04-25T16:07:43;204.53;;;64.47;;
10633;SDS011;5365;51.640;8.106;2023-04-25T16:10:43;203.87;;;62.70;;
10633;SDS011;5365;51.640;8.106;2023-04-25T16:13:44;202.10;;;58.80;;
10633;SDS011;5365;51.640;8.106;2023-04-25T16:16:44;201.93;;;58.10;;
10633;SDS011;5365;51.640;8.106;2023-04-25T16:19:44;202.07;;;57.47;;
10633;SDS011;5365;51.640;8.106;2023-04-25T16:22:45;195.43;;;59.30;;
10633;SDS011;5365;51.640;8.106;2023-04-25T16:25:46;202.33;;;62.10;;
10633;SDS011;5365;51.640;8.106;2023-04-25T16:28:46;202.57;;;63.17;;
10633;SDS011;5365;51.640;8.106;2023-04-25T16:31:46;188.47;;;53.47;;
10633;SDS011;5365;51.640;8.106;2023-04-25T16:34:47;200.77;;;61.80;;
10633;SDS011;5365;51.640;8.106;2023-04-25T16:37:47;193.13;;;55.07;;
10633;SDS011;5365;51.640;8.106;2023-04-25T16:40:48;187.20;;;50.67;;
10633;SDS011;5365;51.640;8.106;2023-04-25T16:43:48;198.47;;;59.13;;
10633;SDS011;5365;51.640;8.106;2023-04-25T16:46:48;195.30;;;56.30;;
10633;SDS011;5365;51.640;8.106;2023-04-25T16:49:48;191.03;;;53.93;;
10633;SDS011;5365;51.640;8.106;2023-04-25T16:52:49;186.10;;;50.97;;
10633;SDS011;5365;51.640;8.106;2023-04-25T16:55:50;189.47;;;54.23;;
10633;SDS011;5365;51.640;8.106;2023-04-25T16:58:50;193.17;;;57.47;;
10633;SDS011;5365;51.640;8.106;2023-04-25T17:01:51;191.27;;;55.57;;
10633;SDS011;5365;51.640;8.106;2023-04-25T17:04:51;195.60;;;56.00;;
10633;SDS011;5365;51.640;8.106;2023-04-25T17:07:51;196.40;;;58.00;;
10633;SDS011;5365;51.640;8.106;2023-04-25T17:10:52;204.47;;;61.20;;
10633;SDS011;5365;51.640;8.106;2023-04-25T17:13:52;199.13;;;58.77;;
10633;SDS011;5365;51.640;8.106;2023-04-25T17:16:52;203.23;;;61.70;;
10633;SDS011;5365;51.640;8.106;2023-04-25T17:19:52;205.20;;;63.43;;
10633;SDS011;5365;51.640;8.106;2023-04-25T17:22:53;203.20;;;62.97;;
10633;SDS011;5365;51.640;8.106;2023-04-25T17:25:53;202.57;;;60.07;;
10633;SDS011;5365;51.640;8.106;2023-04-25T17:28:53;204.17;;;61.43;;
10633;SDS011;5365;51.640;8.106;2023-04-25T17:31:53;204.73;;;61.53;;
10633;SDS011;5365;51.640;8.106;2023-04-25T17:34:56;203.67;;;61.50;;
10633;SDS011;5365;51.640;8.106;2023-04-25T17:37:57;200.37;;;58.23;;
10633;SDS011;5365;51.640;8.106;2023-04-25T17:40:57;204.07;;;61.17;;